sensor_id;sensor_type;location;lat;lon;timestamp;temperature;humidity
5786;DHT22;2919;48.630;9.000;2023-02-28T00:01:07;-2.30;91.70
5786;DHT22;2919;48.630;9.000;2023-02-28T00:03:33;-2.20;91.70
5786;DHT22;2919;48.630;9.000;2023-02-28T00:06:02;-2.20;91.60
5786;DHT22;2919;48.630;9.000;2023-02-28T00:08:28;-2.30;91.70
5786;DHT22;2919;48.630;9.000;2023-02-28T00:10:54;-2.30;91.80
5786;DHT22;2919;48.630;9.000;2023-02-28T00:13:19;-2.30;91.90
5786;DHT22;2919;48.630;9.000;2023-02-28T00:15:45;-2.30;91.90
5786;DHT22;2919;48.630;9.000;2023-02-28T00:18:11;-2.40;91.90
5786;DHT22;2919;48.630;9.000;2023-02-28T00:20:37;-2.30;92.10
5786;DHT22;2919;48.630;9.000;2023-02-28T00:23:03;-2.40;92.00
5786;DHT22;2919;48.630;9.000;2023-02-28T00:25:28;-2.40;92.20
5786;DHT22;2919;48.630;9.000;2023-02-28T00:27:54;-2.40;92.30
5786;DHT22;2919;48.630;9.000;2023-02-28T00:30:22;-2.50;92.30
5786;DHT22;2919;48.630;9.000;2023-02-28T00:32:48;-2.50;92.20
5786;DHT22;2919;48.630;9.000;2023-02-28T00:35:14;-2.50;92.30
5786;DHT22;2919;48.630;9.000;2023-02-28T00:37:39;-2.50;92.40
5786;DHT22;2919;48.630;9.000;2023-02-28T00:40:06;-2.50;92.30
5786;DHT22;2919;48.630;9.000;2023-02-28T00:42:33;-2.60;92.40
5786;DHT22;2919;48.630;9.000;2023-02-28T00:44:59;-2.60;92.80
5786;DHT22;2919;48.630;9.000;2023-02-28T00:47:25;-2.60;92.60
5786;DHT22;2919;48.630;9.000;2023-02-28T00:49:51;-2.60;92.60
5786;DHT22;2919;48.630;9.000;2023-02-28T00:52:16;-2.60;92.70
5786;DHT22;2919;48.630;9.000;2023-02-28T00:54:42;-2.60;92.70
5786;DHT22;2919;48.630;9.000;2023-02-28T00:57:07;-2.70;92.70
5786;DHT22;2919;48.630;9.000;2023-02-28T00:59:33;-2.60;93.00
5786;DHT22;2919;48.630;9.000;2023-02-28T01:01:58;-2.70;93.00
5786;DHT22;2919;48.630;9.000;2023-02-28T01:04:24;-2.60;92.90
5786;DHT22;2919;48.630;9.000;2023-02-28T01:06:50;-2.70;92.90
5786;DHT22;2919;48.630;9.000;2023-02-28T01:09:15;-2.70;92.90
5786;DHT22;2919;48.630;9.000;2023-02-28T01:11:41;-2.70;93.00
5786;DHT22;2919;48.630;9.000;2023-02-28T01:14:13;-2.70;93.10
5786;DHT22;2919;48.630;9.000;2023-02-28T01:16:39;-2.80;93.40
5786;DHT22;2919;48.630;9.000;2023-02-28T01:19:04;-2.80;93.30
5786;DHT22;2919;48.630;9.000;2023-02-28T01:21:30;-2.80;93.30
5786;DHT22;2919;48.630;9.000;2023-02-28T01:23:57;-2.80;93.30
5786;DHT22;2919;48.630;9.000;2023-02-28T01:26:23;-2.80;93.40
5786;DHT22;2919;48.630;9.000;2023-02-28T01:28:51;-2.80;93.20
5786;DHT22;2919;48.630;9.000;2023-02-28T01:31:17;-2.80;93.40
5786;DHT22;2919;48.630;9.000;2023-02-28T01:33:43;-2.90;93.50
5786;DHT22;2919;48.630;9.000;2023-02-28T01:38:38;-2.90;93.60
5786;DHT22;2919;48.630;9.000;2023-02-28T01:41:05;-2.90;93.80
5786;DHT22;2919;48.630;9.000;2023-02-28T01:46:09;-2.90;93.80
5786;DHT22;2919;48.630;9.000;2023-02-28T01:48:38;-2.90;94.00
5786;DHT22;2919;48.630;9.000;2023-02-28T01:51:15;-2.90;94.20
5786;DHT22;2919;48.630;9.000;2023-02-28T01:53:46;-3.00;94.20
5786;DHT22;2919;48.630;9.000;2023-02-28T01:56:14;-2.90;94.40
5786;DHT22;2919;48.630;9.000;2023-02-28T01:58:46;-2.90;94.50
5786;DHT22;2919;48.630;9.000;2023-02-28T02:01:12;-2.90;94.60
5786;DHT22;2919;48.630;9.000;2023-02-28T02:03:50;-2.90;94.60
5786;DHT22;2919;48.630;9.000;2023-02-28T02:06:22;-3.00;94.60
5786;DHT22;2919;48.630;9.000;2023-02-28T02:08:47;-3.00;94.70
5786;DHT22;2919;48.630;9.000;2023-02-28T02:11:17;-3.00;95.00
5786;DHT22;2919;48.630;9.000;2023-02-28T02:14:18;-3.00;95.30
5786;DHT22;2919;48.630;9.000;2023-02-28T02:23:16;-3.00;95.30
5786;DHT22;2919;48.630;9.000;2023-02-28T02:28:41;-3.00;95.50
5786;DHT22;2919;48.630;9.000;2023-02-28T02:43:06;-3.00;96.10
5786;DHT22;2919;48.630;9.000;2023-02-28T02:45:43;-3.00;96.20
5786;DHT22;2919;48.630;9.000;2023-02-28T02:48:13;-2.90;96.40
5786;DHT22;2919;48.630;9.000;2023-02-28T02:50:45;-2.90;96.40
5786;DHT22;2919;48.630;9.000;2023-02-28T02:53:13;-2.90;96.50
5786;DHT22;2919;48.630;9.000;2023-02-28T02:55:43;-2.80;96.40
5786;DHT22;2919;48.630;9.000;2023-02-28T02:58:14;-2.80;96.50
5786;DHT22;2919;48.630;9.000;2023-02-28T03:00:45;-2.80;96.60
5786;DHT22;2919;48.630;9.000;2023-02-28T03:03:13;-2.70;96.60
5786;DHT22;2919;48.630;9.000;2023-02-28T03:05:45;-2.70;96.60
5786;DHT22;2919;48.630;9.000;2023-02-28T03:08:12;-2.70;96.70
5786;DHT22;2919;48.630;9.000;2023-02-28T03:10:40;-2.70;96.70
5786;DHT22;2919;48.630;9.000;2023-02-28T03:24:04;-2.70;97.00
5786;DHT22;2919;48.630;9.000;2023-02-28T03:26:31;-2.70;97.10
5786;DHT22;2919;48.630;9.000;2023-02-28T03:29:06;-2.70;97.10
5786;DHT22;2919;48.630;9.000;2023-02-28T03:31:44;-2.70;97.20
5786;DHT22;2919;48.630;9.000;2023-02-28T03:34:17;-2.70;97.40
5786;DHT22;2919;48.630;9.000;2023-02-28T03:36:48;-2.70;97.40
5786;DHT22;2919;48.630;9.000;2023-02-28T03:39:22;-2.70;97.50
5786;DHT22;2919;48.630;9.000;2023-02-28T03:41:57;-2.70;97.50
5786;DHT22;2919;48.630;9.000;2023-02-28T03:44:35;-2.60;97.60
5786;DHT22;2919;48.630;9.000;2023-02-28T03:47:23;-2.60;97.60
5786;DHT22;2919;48.630;9.000;2023-02-28T03:49:54;-2.60;97.80
5786;DHT22;2919;48.630;9.000;2023-02-28T03:52:23;-2.60;97.80
5786;DHT22;2919;48.630;9.000;2023-02-28T03:54:53;-2.50;98.20
5786;DHT22;2919;48.630;9.000;2023-02-28T03:57:52;-2.60;98.10
5786;DHT22;2919;48.630;9.000;2023-02-28T04:00:47;-2.50;98.10
5786;DHT22;2919;48.630;9.000;2023-02-28T04:03:13;-2.50;98.30
5786;DHT22;2919;48.630;9.000;2023-02-28T04:06:07;-2.50;98.50
5786;DHT22;2919;48.630;9.000;2023-02-28T04:08:33;-2.50;98.70
5786;DHT22;2919;48.630;9.000;2023-02-28T04:11:18;-2.50;98.80
5786;DHT22;2919;48.630;9.000;2023-02-28T04:13:44;-2.50;99.00
5786;DHT22;2919;48.630;9.000;2023-02-28T04:16:10;-2.50;99.00
5786;DHT22;2919;48.630;9.000;2023-02-28T04:18:41;-2.50;99.20
5786;DHT22;2919;48.630;9.000;2023-02-28T04:21:09;-2.50;99.20
5786;DHT22;2919;48.630;9.000;2023-02-28T04:23:34;-2.50;99.20
5786;DHT22;2919;48.630;9.000;2023-02-28T04:26:00;-2.50;99.30
5786;DHT22;2919;48.630;9.000;2023-02-28T04:28:26;-2.50;99.60
5786;DHT22;2919;48.630;9.000;2023-02-28T04:30:59;-2.50;99.40
5786;DHT22;2919;48.630;9.000;2023-02-28T04:33:24;-2.50;99.50
5786;DHT22;2919;48.630;9.000;2023-02-28T04:36:04;-2.50;99.50
5786;DHT22;2919;48.630;9.000;2023-02-28T04:38:32;-2.40;99.50
5786;DHT22;2919;48.630;9.000;2023-02-28T04:40:59;-2.50;99.50
5786;DHT22;2919;48.630;9.000;2023-02-28T04:43:26;-2.50;99.80
5786;DHT22;2919;48.630;9.000;2023-02-28T04:45:52;-2.50;99.70
5786;DHT22;2919;48.630;9.000;2023-02-28T04:48:18;-2.50;99.90
5786;DHT22;2919;48.630;9.000;2023-02-28T04:50:43;-2.50;99.90
5786;DHT22;2919;48.630;9.000;2023-02-28T04:53:09;-2.40;99.90
5786;DHT22;2919;48.630;9.000;2023-02-28T04:55:34;-2.40;99.90
5786;DHT22;2919;48.630;9.000;2023-02-28T04:58:00;-2.40;99.90
5786;DHT22;2919;48.630;9.000;2023-02-28T05:00:26;-2.40;99.90
5786;DHT22;2919;48.630;9.000;2023-02-28T05:02:51;-2.40;99.90
5786;DHT22;2919;48.630;9.000;2023-02-28T05:05:17;-2.40;99.90
5786;DHT22;2919;48.630;9.000;2023-02-28T05:07:44;-2.40;99.90
5786;DHT22;2919;48.630;9.000;2023-02-28T05:10:11;-2.40;99.90
5786;DHT22;2919;48.630;9.000;2023-02-28T05:12:36;-2.40;99.90
5786;DHT22;2919;48.630;9.000;2023-02-28T05:15:03;-2.30;99.90
5786;DHT22;2919;48.630;9.000;2023-02-28T05:17:30;-2.30;99.90
5786;DHT22;2919;48.630;9.000;2023-02-28T05:19:55;-2.30;99.90
5786;DHT22;2919;48.630;9.000;2023-02-28T05:22:21;-2.30;99.90
5786;DHT22;2919;48.630;9.000;2023-02-28T05:24:47;-2.30;99.90
5786;DHT22;2919;48.630;9.000;2023-02-28T05:27:12;-2.30;99.90
5786;DHT22;2919;48.630;9.000;2023-02-28T05:29:38;-2.30;99.90
5786;DHT22;2919;48.630;9.000;2023-02-28T05:32:08;-2.30;99.90
5786;DHT22;2919;48.630;9.000;2023-02-28T05:34:34;-2.30;99.90
5786;DHT22;2919;48.630;9.000;2023-02-28T05:36:59;-2.30;99.90
5786;DHT22;2919;48.630;9.000;2023-02-28T05:39:25;-2.30;99.90
5786;DHT22;2919;48.630;9.000;2023-02-28T05:41:52;-2.30;99.90
5786;DHT22;2919;48.630;9.000;2023-02-28T05:44:17;-2.30;99.90
5786;DHT22;2919;48.630;9.000;2023-02-28T05:46:43;-2.30;99.90
5786;DHT22;2919;48.630;9.000;2023-02-28T05:49:08;-2.30;99.90
5786;DHT22;2919;48.630;9.000;2023-02-28T05:51:34;-2.30;99.90
5786;DHT22;2919;48.630;9.000;2023-02-28T05:54:02;-2.30;99.90
5786;DHT22;2919;48.630;9.000;2023-02-28T05:56:27;-2.40;99.90
5786;DHT22;2919;48.630;9.000;2023-02-28T05:58:53;-2.40;99.90
5786;DHT22;2919;48.630;9.000;2023-02-28T06:01:37;-2.30;99.90
5786;DHT22;2919;48.630;9.000;2023-02-28T06:04:05;-2.30;99.90
5786;DHT22;2919;48.630;9.000;2023-02-28T06:06:31;-2.30;99.90
5786;DHT22;2919;48.630;9.000;2023-02-28T06:08:57;-2.30;99.90
5786;DHT22;2919;48.630;9.000;2023-02-28T06:11:22;-2.30;99.90
5786;DHT22;2919;48.630;9.000;2023-02-28T06:13:54;-2.40;99.90
5786;DHT22;2919;48.630;9.000;2023-02-28T06:16:20;-2.30;99.90
5786;DHT22;2919;48.630;9.000;2023-02-28T06:18:46;-2.40;99.90
5786;DHT22;2919;48.630;9.000;2023-02-28T06:21:12;-2.40;99.90
5786;DHT22;2919;48.630;9.000;2023-02-28T06:23:38;-2.40;99.90
5786;DHT22;2919;48.630;9.000;2023-02-28T06:26:04;-2.40;99.90
5786;DHT22;2919;48.630;9.000;2023-02-28T06:28:31;-2.40;99.90
5786;DHT22;2919;48.630;9.000;2023-02-28T06:30:56;-2.40;99.90
5786;DHT22;2919;48.630;9.000;2023-02-28T06:33:22;-2.40;99.90
5786;DHT22;2919;48.630;9.000;2023-02-28T06:35:50;-2.30;99.90
5786;DHT22;2919;48.630;9.000;2023-02-28T06:38:16;-2.30;99.90
5786;DHT22;2919;48.630;9.000;2023-02-28T06:40:43;-2.30;99.90
5786;DHT22;2919;48.630;9.000;2023-02-28T06:43:09;-2.30;99.90
5786;DHT22;2919;48.630;9.000;2023-02-28T06:45:37;-2.30;99.90
5786;DHT22;2919;48.630;9.000;2023-02-28T06:48:02;-2.30;99.90
5786;DHT22;2919;48.630;9.000;2023-02-28T06:50:28;-2.20;99.90
5786;DHT22;2919;48.630;9.000;2023-02-28T06:52:54;-2.20;99.90
5786;DHT22;2919;48.630;9.000;2023-02-28T06:55:21;-2.20;99.90
5786;DHT22;2919;48.630;9.000;2023-02-28T06:57:46;-2.20;99.90
5786;DHT22;2919;48.630;9.000;2023-02-28T07:00:12;-2.10;99.90
5786;DHT22;2919;48.630;9.000;2023-02-28T07:02:38;-2.10;99.90
5786;DHT22;2919;48.630;9.000;2023-02-28T07:05:05;-2.10;99.90
5786;DHT22;2919;48.630;9.000;2023-02-28T07:07:30;-2.10;99.90
5786;DHT22;2919;48.630;9.000;2023-02-28T07:09:57;-2.00;99.90
5786;DHT22;2919;48.630;9.000;2023-02-28T07:12:23;-2.00;99.90
5786;DHT22;2919;48.630;9.000;2023-02-28T07:14:48;-2.00;99.90
5786;DHT22;2919;48.630;9.000;2023-02-28T07:17:14;-2.00;99.90
5786;DHT22;2919;48.630;9.000;2023-02-28T07:19:40;-1.90;99.90
5786;DHT22;2919;48.630;9.000;2023-02-28T07:22:06;-1.90;99.90
5786;DHT22;2919;48.630;9.000;2023-02-28T07:24:32;-1.90;99.90
5786;DHT22;2919;48.630;9.000;2023-02-28T07:26:58;-1.80;99.90
5786;DHT22;2919;48.630;9.000;2023-02-28T07:29:25;-1.80;99.90
5786;DHT22;2919;48.630;9.000;2023-02-28T07:31:50;-1.80;99.90
5786;DHT22;2919;48.630;9.000;2023-02-28T07:34:19;-1.80;99.90
5786;DHT22;2919;48.630;9.000;2023-02-28T07:36:44;-1.70;99.90
5786;DHT22;2919;48.630;9.000;2023-02-28T07:39:10;-1.70;99.90
5786;DHT22;2919;48.630;9.000;2023-02-28T07:41:36;-1.70;99.90
5786;DHT22;2919;48.630;9.000;2023-02-28T07:44:11;-1.60;99.90
5786;DHT22;2919;48.630;9.000;2023-02-28T07:46:37;-1.60;99.90
5786;DHT22;2919;48.630;9.000;2023-02-28T07:49:03;-1.60;99.90
5786;DHT22;2919;48.630;9.000;2023-02-28T07:51:29;-1.60;99.90
5786;DHT22;2919;48.630;9.000;2023-02-28T07:53:55;-1.60;99.90
5786;DHT22;2919;48.630;9.000;2023-02-28T07:56:21;-1.60;99.90
5786;DHT22;2919;48.630;9.000;2023-02-28T07:58:47;-1.50;99.90
5786;DHT22;2919;48.630;9.000;2023-02-28T08:01:13;-1.50;99.90
5786;DHT22;2919;48.630;9.000;2023-02-28T08:03:39;-1.50;99.90
5786;DHT22;2919;48.630;9.000;2023-02-28T08:06:06;-1.50;99.90
5786;DHT22;2919;48.630;9.000;2023-02-28T08:08:33;-1.50;99.90
5786;DHT22;2919;48.630;9.000;2023-02-28T08:11:02;-1.50;99.90
5786;DHT22;2919;48.630;9.000;2023-02-28T08:13:29;-1.50;99.90
5786;DHT22;2919;48.630;9.000;2023-02-28T08:15:55;-1.40;99.90
5786;DHT22;2919;48.630;9.000;2023-02-28T08:18:21;-1.40;99.90
5786;DHT22;2919;48.630;9.000;2023-02-28T08:20:47;-1.30;99.90
5786;DHT22;2919;48.630;9.000;2023-02-28T08:23:13;-1.30;99.90
5786;DHT22;2919;48.630;9.000;2023-02-28T08:25:39;-1.30;99.90
5786;DHT22;2919;48.630;9.000;2023-02-28T08:28:05;-1.30;99.90
5786;DHT22;2919;48.630;9.000;2023-02-28T08:30:31;-1.30;99.90
5786;DHT22;2919;48.630;9.000;2023-02-28T08:32:56;-1.20;99.90
5786;DHT22;2919;48.630;9.000;2023-02-28T08:35:22;-1.20;99.90
5786;DHT22;2919;48.630;9.000;2023-02-28T08:37:48;-1.10;99.90
5786;DHT22;2919;48.630;9.000;2023-02-28T08:40:14;-1.10;99.90
5786;DHT22;2919;48.630;9.000;2023-02-28T08:42:44;-1.10;99.90
5786;DHT22;2919;48.630;9.000;2023-02-28T08:45:10;-1.10;99.90
5786;DHT22;2919;48.630;9.000;2023-02-28T08:47:36;-1.10;99.60
5786;DHT22;2919;48.630;9.000;2023-02-28T08:50:03;-1.10;99.60
5786;DHT22;2919;48.630;9.000;2023-02-28T08:52:28;-1.00;99.80
5786;DHT22;2919;48.630;9.000;2023-02-28T08:54:54;-1.10;99.90
5786;DHT22;2919;48.630;9.000;2023-02-28T08:57:19;-1.10;99.80
5786;DHT22;2919;48.630;9.000;2023-02-28T08:59:45;-1.00;99.70
5786;DHT22;2919;48.630;9.000;2023-02-28T09:02:14;-1.00;99.20
5786;DHT22;2919;48.630;9.000;2023-02-28T09:04:40;-1.00;99.40
5786;DHT22;2919;48.630;9.000;2023-02-28T09:07:06;-0.90;99.10
5786;DHT22;2919;48.630;9.000;2023-02-28T09:09:31;-0.90;99.00
5786;DHT22;2919;48.630;9.000;2023-02-28T09:11:58;-1.00;99.10
5786;DHT22;2919;48.630;9.000;2023-02-28T09:14:23;-1.00;99.10
5786;DHT22;2919;48.630;9.000;2023-02-28T09:16:49;-0.90;99.20
5786;DHT22;2919;48.630;9.000;2023-02-28T09:19:15;-0.90;98.70
5786;DHT22;2919;48.630;9.000;2023-02-28T09:21:40;-0.80;98.80
5786;DHT22;2919;48.630;9.000;2023-02-28T09:24:06;-0.80;98.80
5786;DHT22;2919;48.630;9.000;2023-02-28T09:26:32;-0.70;98.60
5786;DHT22;2919;48.630;9.000;2023-02-28T09:28:59;-0.70;98.50
5786;DHT22;2919;48.630;9.000;2023-02-28T09:31:27;-0.60;98.40
5786;DHT22;2919;48.630;9.000;2023-02-28T09:33:55;-0.50;97.90
5786;DHT22;2919;48.630;9.000;2023-02-28T09:36:22;-0.60;98.20
5786;DHT22;2919;48.630;9.000;2023-02-28T09:38:47;-0.60;97.70
5786;DHT22;2919;48.630;9.000;2023-02-28T09:41:18;-0.50;97.70
5786;DHT22;2919;48.630;9.000;2023-02-28T09:44:00;-0.60;97.80
5786;DHT22;2919;48.630;9.000;2023-02-28T09:46:47;-0.50;98.30
5786;DHT22;2919;48.630;9.000;2023-02-28T09:49:22;-0.40;97.60
5786;DHT22;2919;48.630;9.000;2023-02-28T09:52:04;-0.40;97.60
5786;DHT22;2919;48.630;9.000;2023-02-28T09:54:32;-0.30;97.80
5786;DHT22;2919;48.630;9.000;2023-02-28T09:57:12;-0.30;97.20
5786;DHT22;2919;48.630;9.000;2023-02-28T09:59:46;-0.30;97.10
5786;DHT22;2919;48.630;9.000;2023-02-28T10:02:41;-0.30;97.10
5786;DHT22;2919;48.630;9.000;2023-02-28T10:05:16;-0.40;97.30
5786;DHT22;2919;48.630;9.000;2023-02-28T10:13:14;-0.20;97.30
5786;DHT22;2919;48.630;9.000;2023-02-28T10:15:41;-0.20;97.00
5786;DHT22;2919;48.630;9.000;2023-02-28T10:18:12;-0.30;97.00
5786;DHT22;2919;48.630;9.000;2023-02-28T10:20:42;0.00;96.80
5786;DHT22;2919;48.630;9.000;2023-02-28T10:23:26;0.00;96.60
5786;DHT22;2919;48.630;9.000;2023-02-28T10:25:59;-0.10;96.40
5786;DHT22;2919;48.630;9.000;2023-02-28T10:28:25;-0.10;96.20
5786;DHT22;2919;48.630;9.000;2023-02-28T10:30:53;-0.20;96.90
5786;DHT22;2919;48.630;9.000;2023-02-28T10:35:51;-0.10;96.10
5786;DHT22;2919;48.630;9.000;2023-02-28T10:38:21;0.00;96.60
5786;DHT22;2919;48.630;9.000;2023-02-28T10:40:47;0.20;96.50
5786;DHT22;2919;48.630;9.000;2023-02-28T10:45:38;0.20;96.10
5786;DHT22;2919;48.630;9.000;2023-02-28T10:48:27;0.40;95.90
5786;DHT22;2919;48.630;9.000;2023-02-28T10:50:51;0.50;95.70
5786;DHT22;2919;48.630;9.000;2023-02-28T10:56:16;0.30;95.50
5786;DHT22;2919;48.630;9.000;2023-02-28T11:01:40;0.60;95.50
5786;DHT22;2919;48.630;9.000;2023-02-28T11:07:23;1.00;94.30
5786;DHT22;2919;48.630;9.000;2023-02-28T11:09:56;0.80;94.10
5786;DHT22;2919;48.630;9.000;2023-02-28T11:15:00;1.10;94.40
5786;DHT22;2919;48.630;9.000;2023-02-28T11:17:30;1.10;94.20
5786;DHT22;2919;48.630;9.000;2023-02-28T11:20:05;1.00;94.00
5786;DHT22;2919;48.630;9.000;2023-02-28T11:22:38;1.00;94.40
5786;DHT22;2919;48.630;9.000;2023-02-28T11:25:19;1.00;94.20
5786;DHT22;2919;48.630;9.000;2023-02-28T11:27:50;0.90;94.10
5786;DHT22;2919;48.630;9.000;2023-02-28T11:30:36;0.80;94.10
5786;DHT22;2919;48.630;9.000;2023-02-28T11:33:28;1.10;94.20
5786;DHT22;2919;48.630;9.000;2023-02-28T11:36:00;1.20;94.20
5786;DHT22;2919;48.630;9.000;2023-02-28T11:38:26;1.30;93.80
5786;DHT22;2919;48.630;9.000;2023-02-28T11:43:30;1.50;93.70
5786;DHT22;2919;48.630;9.000;2023-02-28T11:46:34;1.40;93.50
5786;DHT22;2919;48.630;9.000;2023-02-28T11:52:04;2.00;92.80
5786;DHT22;2919;48.630;9.000;2023-02-28T11:57:48;2.20;91.90
5786;DHT22;2919;48.630;9.000;2023-02-28T12:05:45;2.30;92.40
5786;DHT22;2919;48.630;9.000;2023-02-28T12:13:36;2.20;92.10
5786;DHT22;2919;48.630;9.000;2023-02-28T12:26:45;2.90;90.60
5786;DHT22;2919;48.630;9.000;2023-02-28T12:29:33;2.90;90.60
5786;DHT22;2919;48.630;9.000;2023-02-28T12:32:22;2.70;91.40
5786;DHT22;2919;48.630;9.000;2023-02-28T12:35:21;2.90;90.90
5786;DHT22;2919;48.630;9.000;2023-02-28T12:40:23;3.20;90.70
5786;DHT22;2919;48.630;9.000;2023-02-28T12:45:20;3.50;88.80
5786;DHT22;2919;48.630;9.000;2023-02-28T12:47:52;3.50;89.20
5786;DHT22;2919;48.630;9.000;2023-02-28T12:50:23;3.40;89.30
5786;DHT22;2919;48.630;9.000;2023-02-28T12:53:08;3.50;88.80
5786;DHT22;2919;48.630;9.000;2023-02-28T12:55:48;3.40;88.90
5786;DHT22;2919;48.630;9.000;2023-02-28T13:09:14;3.30;89.50
5786;DHT22;2919;48.630;9.000;2023-02-28T13:11:48;3.40;89.50
5786;DHT22;2919;48.630;9.000;2023-02-28T13:22:19;3.80;88.50
5786;DHT22;2919;48.630;9.000;2023-02-28T13:24:54;3.70;88.40
5786;DHT22;2919;48.630;9.000;2023-02-28T13:29:52;3.70;89.60
5786;DHT22;2919;48.630;9.000;2023-02-28T13:39:58;3.90;87.10
5786;DHT22;2919;48.630;9.000;2023-02-28T14:06:51;4.10;88.40
5786;DHT22;2919;48.630;9.000;2023-02-28T14:09:30;4.20;87.60
5786;DHT22;2919;48.630;9.000;2023-02-28T14:15:03;3.90;87.70
5786;DHT22;2919;48.630;9.000;2023-02-28T14:17:28;3.90;87.70
5786;DHT22;2919;48.630;9.000;2023-02-28T14:19:55;3.80;88.00
5786;DHT22;2919;48.630;9.000;2023-02-28T14:31:29;4.00;87.40
5786;DHT22;2919;48.630;9.000;2023-02-28T14:37:20;4.10;87.60
5786;DHT22;2919;48.630;9.000;2023-02-28T14:39:46;4.10;86.60
5786;DHT22;2919;48.630;9.000;2023-02-28T14:42:28;4.10;86.30
5786;DHT22;2919;48.630;9.000;2023-02-28T14:44:56;4.10;86.10
5786;DHT22;2919;48.630;9.000;2023-02-28T14:47:25;4.10;86.30
5786;DHT22;2919;48.630;9.000;2023-02-28T14:49:52;4.00;86.70
5786;DHT22;2919;48.630;9.000;2023-02-28T14:52:21;4.10;86.50
5786;DHT22;2919;48.630;9.000;2023-02-28T14:54:56;4.20;86.60
5786;DHT22;2919;48.630;9.000;2023-02-28T14:57:25;4.20;86.70
5786;DHT22;2919;48.630;9.000;2023-02-28T15:02:37;4.30;86.60
5786;DHT22;2919;48.630;9.000;2023-02-28T15:07:38;4.30;86.10
5786;DHT22;2919;48.630;9.000;2023-02-28T15:12:35;4.30;85.80
5786;DHT22;2919;48.630;9.000;2023-02-28T15:15:02;4.30;85.20
5786;DHT22;2919;48.630;9.000;2023-02-28T15:17:28;4.40;85.80
5786;DHT22;2919;48.630;9.000;2023-02-28T15:19:54;4.30;85.10
5786;DHT22;2919;48.630;9.000;2023-02-28T15:22:34;4.30;85.20
5786;DHT22;2919;48.630;9.000;2023-02-28T15:25:02;4.30;85.90
5786;DHT22;2919;48.630;9.000;2023-02-28T15:27:32;4.20;86.30
5786;DHT22;2919;48.630;9.000;2023-02-28T15:30:07;4.10;86.50
5786;DHT22;2919;48.630;9.000;2023-02-28T15:32:38;4.20;86.10
5786;DHT22;2919;48.630;9.000;2023-02-28T15:38:13;4.20;85.80
5786;DHT22;2919;48.630;9.000;2023-02-28T15:40:45;4.10;86.30
5786;DHT22;2919;48.630;9.000;2023-02-28T15:45:49;3.90;86.40
5786;DHT22;2919;48.630;9.000;2023-02-28T15:48:20;3.90;86.90
5786;DHT22;2919;48.630;9.000;2023-02-28T15:50:52;3.90;86.50
5786;DHT22;2919;48.630;9.000;2023-02-28T15:53:31;3.80;86.60
5786;DHT22;2919;48.630;9.000;2023-02-28T15:56:01;3.80;86.50
5786;DHT22;2919;48.630;9.000;2023-02-28T15:58:27;3.70;87.10
5786;DHT22;2919;48.630;9.000;2023-02-28T16:01:23;3.70;86.90
5786;DHT22;2919;48.630;9.000;2023-02-28T16:03:51;3.60;87.70
5786;DHT22;2919;48.630;9.000;2023-02-28T16:08:51;3.60;87.70
5786;DHT22;2919;48.630;9.000;2023-02-28T16:11:20;3.60;88.10
5786;DHT22;2919;48.630;9.000;2023-02-28T16:13:46;3.50;87.90
5786;DHT22;2919;48.630;9.000;2023-02-28T16:16:20;3.50;88.00
5786;DHT22;2919;48.630;9.000;2023-02-28T16:18:46;3.40;88.30
5786;DHT22;2919;48.630;9.000;2023-02-28T16:21:12;3.40;88.40
5786;DHT22;2919;48.630;9.000;2023-02-28T16:23:37;3.30;88.70
5786;DHT22;2919;48.630;9.000;2023-02-28T16:26:04;3.30;88.70
5786;DHT22;2919;48.630;9.000;2023-02-28T16:28:33;3.30;88.70
5786;DHT22;2919;48.630;9.000;2023-02-28T16:31:00;3.30;88.80
5786;DHT22;2919;48.630;9.000;2023-02-28T16:33:28;3.20;89.30
5786;DHT22;2919;48.630;9.000;2023-02-28T16:35:54;3.20;89.10
5786;DHT22;2919;48.630;9.000;2023-02-28T16:38:19;3.10;89.00
5786;DHT22;2919;48.630;9.000;2023-02-28T16:40:46;3.00;89.10
5786;DHT22;2919;48.630;9.000;2023-02-28T16:43:20;3.00;89.40
5786;DHT22;2919;48.630;9.000;2023-02-28T16:45:47;3.00;89.50
5786;DHT22;2919;48.630;9.000;2023-02-28T16:48:15;2.90;89.60
5786;DHT22;2919;48.630;9.000;2023-02-28T16:50:42;2.90;89.80
5786;DHT22;2919;48.630;9.000;2023-02-28T16:53:10;2.80;90.10
5786;DHT22;2919;48.630;9.000;2023-02-28T16:55:36;2.80;90.30
5786;DHT22;2919;48.630;9.000;2023-02-28T16:58:02;2.70;90.40
5786;DHT22;2919;48.630;9.000;2023-02-28T17:00:29;2.60;90.60
5786;DHT22;2919;48.630;9.000;2023-02-28T17:02:56;2.50;90.60
5786;DHT22;2919;48.630;9.000;2023-02-28T17:05:22;2.50;90.80
5786;DHT22;2919;48.630;9.000;2023-02-28T17:07:48;2.40;90.90
5786;DHT22;2919;48.630;9.000;2023-02-28T17:10:20;2.30;91.00
5786;DHT22;2919;48.630;9.000;2023-02-28T17:12:46;2.30;91.10
5786;DHT22;2919;48.630;9.000;2023-02-28T17:15:14;2.30;91.30
5786;DHT22;2919;48.630;9.000;2023-02-28T17:17:41;2.20;91.30
5786;DHT22;2919;48.630;9.000;2023-02-28T17:20:21;2.10;91.50
5786;DHT22;2919;48.630;9.000;2023-02-28T17:22:52;2.10;91.60
5786;DHT22;2919;48.630;9.000;2023-02-28T17:25:18;2.10;91.70
5786;DHT22;2919;48.630;9.000;2023-02-28T17:27:44;1.90;91.60
5786;DHT22;2919;48.630;9.000;2023-02-28T17:30:18;1.90;91.90
5786;DHT22;2919;48.630;9.000;2023-02-28T17:32:44;1.90;92.00
5786;DHT22;2919;48.630;9.000;2023-02-28T17:35:10;1.90;92.10
5786;DHT22;2919;48.630;9.000;2023-02-28T17:37:36;1.80;92.20
5786;DHT22;2919;48.630;9.000;2023-02-28T17:40:02;1.70;92.30
5786;DHT22;2919;48.630;9.000;2023-02-28T17:42:28;1.70;92.40
5786;DHT22;2919;48.630;9.000;2023-02-28T17:44:53;1.60;92.50
5786;DHT22;2919;48.630;9.000;2023-02-28T17:47:19;1.60;92.70
5786;DHT22;2919;48.630;9.000;2023-02-28T17:49:44;1.50;93.10
5786;DHT22;2919;48.630;9.000;2023-02-28T17:52:10;1.50;92.90
5786;DHT22;2919;48.630;9.000;2023-02-28T17:54:36;1.40;93.00
5786;DHT22;2919;48.630;9.000;2023-02-28T17:57:01;1.40;93.10
5786;DHT22;2919;48.630;9.000;2023-02-28T17:59:27;1.40;93.20
5786;DHT22;2919;48.630;9.000;2023-02-28T18:02:02;1.30;93.20
5786;DHT22;2919;48.630;9.000;2023-02-28T18:04:29;1.30;93.30
5786;DHT22;2919;48.630;9.000;2023-02-28T18:06:54;1.20;93.40
5786;DHT22;2919;48.630;9.000;2023-02-28T18:09:26;1.20;93.40
5786;DHT22;2919;48.630;9.000;2023-02-28T18:11:53;1.20;93.50
5786;DHT22;2919;48.630;9.000;2023-02-28T18:14:21;1.10;93.60
5786;DHT22;2919;48.630;9.000;2023-02-28T18:16:48;1.10;93.60
5786;DHT22;2919;48.630;9.000;2023-02-28T18:19:13;1.00;93.70
5786;DHT22;2919;48.630;9.000;2023-02-28T18:21:46;1.10;93.70
5786;DHT22;2919;48.630;9.000;2023-02-28T18:24:13;1.10;93.60
5786;DHT22;2919;48.630;9.000;2023-02-28T18:26:41;1.10;93.60
5786;DHT22;2919;48.630;9.000;2023-02-28T18:29:08;1.00;93.80
5786;DHT22;2919;48.630;9.000;2023-02-28T18:31:34;0.90;93.90
5786;DHT22;2919;48.630;9.000;2023-02-28T18:34:00;0.90;93.90
5786;DHT22;2919;48.630;9.000;2023-02-28T18:36:26;0.80;94.00
5786;DHT22;2919;48.630;9.000;2023-02-28T18:38:52;0.80;94.30
5786;DHT22;2919;48.630;9.000;2023-02-28T18:41:19;0.70;94.40
5786;DHT22;2919;48.630;9.000;2023-02-28T18:43:46;0.80;94.40
5786;DHT22;2919;48.630;9.000;2023-02-28T18:46:15;0.60;94.50
5786;DHT22;2919;48.630;9.000;2023-02-28T18:48:41;0.60;94.60
5786;DHT22;2919;48.630;9.000;2023-02-28T18:51:22;0.60;94.70
5786;DHT22;2919;48.630;9.000;2023-02-28T18:53:48;0.50;94.80
5786;DHT22;2919;48.630;9.000;2023-02-28T18:56:17;0.50;94.80
5786;DHT22;2919;48.630;9.000;2023-02-28T18:58:43;0.50;94.90
5786;DHT22;2919;48.630;9.000;2023-02-28T19:01:26;0.50;94.90
5786;DHT22;2919;48.630;9.000;2023-02-28T19:03:54;0.40;94.90
5786;DHT22;2919;48.630;9.000;2023-02-28T19:06:21;0.40;95.00
5786;DHT22;2919;48.630;9.000;2023-02-28T19:08:47;0.40;95.10
5786;DHT22;2919;48.630;9.000;2023-02-28T19:11:17;0.40;95.20
5786;DHT22;2919;48.630;9.000;2023-02-28T19:13:44;0.30;95.40
5786;DHT22;2919;48.630;9.000;2023-02-28T19:16:12;0.30;95.50
5786;DHT22;2919;48.630;9.000;2023-02-28T19:18:38;0.20;95.70